sensor_id;sensor_type;location;lat;lon;timestamp;P1;durP1;ratioP1;P2;durP2;ratioP2
21206;SDS011;10761;48.532;8.026;2024-02-04T00:00:43;5.05;;;2.50;;
21206;SDS011;10761;48.532;8.026;2024-02-04T00:03:09;2.78;;;2.42;;
21206;SDS011;10761;48.532;8.026;2024-02-04T00:05:35;2.95;;;2.20;;
21206;SDS011;10761;48.532;8.026;2024-02-04T00:08:01;4.20;;;2.40;;
21206;SDS011;10761;48.532;8.026;2024-02-04T00:10:27;2.72;;;2.30;;
21206;SDS011;10761;48.532;8.026;2024-02-04T00:12:53;2.47;;;1.98;;
21206;SDS011;10761;48.532;8.026;2024-02-04T00:15:18;1.95;;;1.75;;
21206;SDS011;10761;48.532;8.026;2024-02-04T00:17:44;2.03;;;1.67;;
21206;SDS011;10761;48.532;8.026;2024-02-04T00:20:10;3.33;;;2.05;;
21206;SDS011;10761;48.532;8.026;2024-02-04T00:22:35;1.95;;;1.58;;
21206;SDS011;10761;48.532;8.026;2024-02-04T00:25:01;2.28;;;1.92;;
21206;SDS011;10761;48.532;8.026;2024-02-04T00:27:30;1.65;;;1.55;;
21206;SDS011;10761;48.532;8.026;2024-02-04T00:29:56;2.67;;;2.00;;
21206;SDS011;10761;48.532;8.026;2024-02-04T00:32:23;2.03;;;1.77;;
21206;SDS011;10761;48.532;8.026;2024-02-04T00:34:49;2.83;;;1.60;;
21206;SDS011;10761;48.532;8.026;2024-02-04T00:37:14;2.03;;;1.50;;
21206;SDS011;10761;48.532;8.026;2024-02-04T00:39:40;1.27;;;1.17;;
21206;SDS011;10761;48.532;8.026;2024-02-04T00:42:05;2.88;;;1.48;;
21206;SDS011;10761;48.532;8.026;2024-02-04T00:44:31;1.55;;;1.20;;
21206;SDS011;10761;48.532;8.026;2024-02-04T00:46:56;2.20;;;1.80;;
21206;SDS011;10761;48.532;8.026;2024-02-04T00:49:22;1.48;;;1.27;;
21206;SDS011;10761;48.532;8.026;2024-02-04T00:51:51;1.52;;;1.23;;
21206;SDS011;10761;48.532;8.026;2024-02-04T00:54:16;1.63;;;1.33;;
21206;SDS011;10761;48.532;8.026;2024-02-04T00:56:42;2.22;;;1.60;;
21206;SDS011;10761;48.532;8.026;2024-02-04T00:59:07;2.03;;;1.80;;
21206;SDS011;10761;48.532;8.026;2024-02-04T01:01:33;2.17;;;1.50;;
21206;SDS011;10761;48.532;8.026;2024-02-04T01:03:59;1.63;;;1.45;;
21206;SDS011;10761;48.532;8.026;2024-02-04T01:06:24;1.80;;;1.70;;
21206;SDS011;10761;48.532;8.026;2024-02-04T01:08:50;1.85;;;1.33;;
21206;SDS011;10761;48.532;8.026;2024-02-04T01:11:16;1.50;;;1.40;;
21206;SDS011;10761;48.532;8.026;2024-02-04T01:13:41;2.28;;;1.40;;
21206;SDS011;10761;48.532;8.026;2024-02-04T01:16:07;1.17;;;1.05;;
21206;SDS011;10761;48.532;8.026;2024-02-04T01:18:32;1.83;;;1.20;;
21206;SDS011;10761;48.532;8.026;2024-02-04T01:20:58;2.63;;;1.30;;
21206;SDS011;10761;48.532;8.026;2024-02-04T01:23:25;1.45;;;1.35;;
21206;SDS011;10761;48.532;8.026;2024-02-04T01:25:51;1.52;;;1.33;;
21206;SDS011;10761;48.532;8.026;2024-02-04T01:28:16;1.40;;;1.30;;
21206;SDS011;10761;48.532;8.026;2024-02-04T01:30:42;2.10;;;1.30;;
21206;SDS011;10761;48.532;8.026;2024-02-04T01:33:07;1.20;;;1.10;;
21206;SDS011;10761;48.532;8.026;2024-02-04T01:35:33;1.30;;;1.20;;
21206;SDS011;10761;48.532;8.026;2024-02-04T01:37:59;1.35;;;1.25;;
21206;SDS011;10761;48.532;8.026;2024-02-04T01:40:24;1.58;;;1.42;;
21206;SDS011;10761;48.532;8.026;2024-02-04T01:42:50;1.60;;;1.20;;
21206;SDS011;10761;48.532;8.026;2024-02-04T01:45:15;1.52;;;1.20;;
21206;SDS011;10761;48.532;8.026;2024-02-04T01:47:41;2.53;;;1.30;;
21206;SDS011;10761;48.532;8.026;2024-02-04T01:50:07;1.20;;;1.05;;
21206;SDS011;10761;48.532;8.026;2024-02-04T01:52:34;1.38;;;1.20;;
21206;SDS011;10761;48.532;8.026;2024-02-04T01:55:03;1.85;;;1.40;;
21206;SDS011;10761;48.532;8.026;2024-02-04T01:57:31;1.17;;;1.00;;
21206;SDS011;10761;48.532;8.026;2024-02-04T01:59:57;1.10;;;1.00;;
21206;SDS011;10761;48.532;8.026;2024-02-04T02:02:23;1.00;;;0.80;;
21206;SDS011;10761;48.532;8.026;2024-02-04T02:04:50;0.77;;;0.77;;
21206;SDS011;10761;48.532;8.026;2024-02-04T02:07:17;1.00;;;0.90;;
21206;SDS011;10761;48.532;8.026;2024-02-04T02:09:45;0.85;;;0.85;;
21206;SDS011;10761;48.532;8.026;2024-02-04T02:12:13;0.70;;;0.70;;
21206;SDS011;10761;48.532;8.026;2024-02-04T02:14:42;1.13;;;1.02;;
21206;SDS011;10761;48.532;8.026;2024-02-04T02:17:12;0.90;;;0.90;;
21206;SDS011;10761;48.532;8.026;2024-02-04T02:22:28;1.40;;;1.30;;
21206;SDS011;10761;48.532;8.026;2024-02-04T02:25:10;2.67;;;2.47;;
21206;SDS011;10761;48.532;8.026;2024-02-04T02:27:45;4.07;;;3.15;;
21206;SDS011;10761;48.532;8.026;2024-02-04T02:30:14;3.15;;;2.83;;
21206;SDS011;10761;48.532;8.026;2024-02-04T02:32:41;4.63;;;3.08;;
21206;SDS011;10761;48.532;8.026;2024-02-04T02:35:07;3.80;;;3.17;;
21206;SDS011;10761;48.532;8.026;2024-02-04T02:37:36;3.28;;;2.97;;
21206;SDS011;10761;48.532;8.026;2024-02-04T02:42:40;3.15;;;2.72;;
21206;SDS011;10761;48.532;8.026;2024-02-04T02:45:08;4.45;;;2.80;;
21206;SDS011;10761;48.532;8.026;2024-02-04T02:47:36;2.70;;;2.30;;
21206;SDS011;10761;48.532;8.026;2024-02-04T02:50:04;2.90;;;2.20;;
21206;SDS011;10761;48.532;8.026;2024-02-04T02:52:30;3.08;;;2.25;;
21206;SDS011;10761;48.532;8.026;2024-02-04T02:54:56;2.65;;;2.35;;
21206;SDS011;10761;48.532;8.026;2024-02-04T02:57:22;2.25;;;2.05;;
21206;SDS011;10761;48.532;8.026;2024-02-04T02:59:47;4.22;;;2.00;;
21206;SDS011;10761;48.532;8.026;2024-02-04T03:02:13;2.20;;;2.00;;
21206;SDS011;10761;48.532;8.026;2024-02-04T03:04:39;2.05;;;1.85;;
21206;SDS011;10761;48.532;8.026;2024-02-04T03:07:04;2.55;;;1.90;;
21206;SDS011;10761;48.532;8.026;2024-02-04T03:09:31;2.05;;;1.85;;
21206;SDS011;10761;48.532;8.026;2024-02-04T03:11:57;3.42;;;1.90;;
21206;SDS011;10761;48.532;8.026;2024-02-04T03:14:22;2.20;;;2.00;;
21206;SDS011;10761;48.532;8.026;2024-02-04T03:16:48;1.98;;;1.88;;
21206;SDS011;10761;48.532;8.026;2024-02-04T03:19:13;2.40;;;2.00;;
21206;SDS011;10761;48.532;8.026;2024-02-04T03:21:39;2.20;;;1.98;;
21206;SDS011;10761;48.532;8.026;2024-02-04T03:24:05;3.28;;;1.90;;
21206;SDS011;10761;48.532;8.026;2024-02-04T03:26:30;1.83;;;1.73;;
21206;SDS011;10761;48.532;8.026;2024-02-04T03:28:56;2.00;;;1.80;;
21206;SDS011;10761;48.532;8.026;2024-02-04T03:31:22;1.80;;;1.70;;
21206;SDS011;10761;48.532;8.026;2024-02-04T03:33:48;1.85;;;1.65;;
21206;SDS011;10761;48.532;8.026;2024-02-04T03:36:17;2.42;;;1.80;;
21206;SDS011;10761;48.532;8.026;2024-02-04T03:38:51;2.60;;;1.70;;
21206;SDS011;10761;48.532;8.026;2024-02-04T03:41:16;3.45;;;1.60;;
21206;SDS011;10761;48.532;8.026;2024-02-04T03:43:42;1.92;;;1.73;;
21206;SDS011;10761;48.532;8.026;2024-02-04T03:46:12;2.33;;;1.83;;
21206;SDS011;10761;48.532;8.026;2024-02-04T03:48:39;2.83;;;1.65;;
21206;SDS011;10761;48.532;8.026;2024-02-04T03:51:04;1.83;;;1.48;;
21206;SDS011;10761;48.532;8.026;2024-02-04T03:53:30;1.42;;;1.33;;
21206;SDS011;10761;48.532;8.026;2024-02-04T03:55:56;2.78;;;1.50;;
21206;SDS011;10761;48.532;8.026;2024-02-04T03:58:22;1.48;;;1.33;;
21206;SDS011;10761;48.532;8.026;2024-02-04T04:00:54;1.38;;;1.27;;
21206;SDS011;10761;48.532;8.026;2024-02-04T04:03:20;1.30;;;1.20;;
21206;SDS011;10761;48.532;8.026;2024-02-04T04:05:46;1.52;;;1.20;;
21206;SDS011;10761;48.532;8.026;2024-02-04T04:08:12;1.42;;;1.30;;
21206;SDS011;10761;48.532;8.026;2024-02-04T04:10:38;1.42;;;1.17;;
21206;SDS011;10761;48.532;8.026;2024-02-04T04:13:03;1.25;;;1.05;;
21206;SDS011;10761;48.532;8.026;2024-02-04T04:15:29;1.05;;;0.95;;
21206;SDS011;10761;48.532;8.026;2024-02-04T04:17:54;1.25;;;1.10;;
21206;SDS011;10761;48.532;8.026;2024-02-04T04:20:20;1.73;;;1.23;;
21206;SDS011;10761;48.532;8.026;2024-02-04T04:22:45;1.73;;;0.95;;
21206;SDS011;10761;48.532;8.026;2024-02-04T04:25:11;1.15;;;1.05;;
21206;SDS011;10761;48.532;8.026;2024-02-04T04:27:38;2.22;;;1.30;;
21206;SDS011;10761;48.532;8.026;2024-02-04T04:30:04;2.00;;;1.10;;
21206;SDS011;10761;48.532;8.026;2024-02-04T04:32:30;1.80;;;1.15;;
21206;SDS011;10761;48.532;8.026;2024-02-04T04:34:57;0.77;;;0.77;;
21206;SDS011;10761;48.532;8.026;2024-02-04T04:37:22;1.55;;;1.20;;
21206;SDS011;10761;48.532;8.026;2024-02-04T04:39:48;1.65;;;1.00;;
21206;SDS011;10761;48.532;8.026;2024-02-04T04:42:13;1.10;;;1.10;;
21206;SDS011;10761;48.532;8.026;2024-02-04T04:44:39;1.58;;;1.00;;
21206;SDS011;10761;48.532;8.026;2024-02-04T04:47:05;1.20;;;1.08;;
21206;SDS011;10761;48.532;8.026;2024-02-04T04:49:31;1.00;;;0.90;;
21206;SDS011;10761;48.532;8.026;2024-02-04T04:51:56;1.20;;;1.10;;
21206;SDS011;10761;48.532;8.026;2024-02-04T04:54:22;1.55;;;1.05;;
21206;SDS011;10761;48.532;8.026;2024-02-04T04:56:48;0.85;;;0.85;;
21206;SDS011;10761;48.532;8.026;2024-02-04T04:59:14;1.10;;;1.00;;
21206;SDS011;10761;48.532;8.026;2024-02-04T05:01:47;1.35;;;1.10;;
21206;SDS011;10761;48.532;8.026;2024-02-04T05:04:13;1.70;;;1.10;;
21206;SDS011;10761;48.532;8.026;2024-02-04T05:06:40;1.50;;;1.13;;
21206;SDS011;10761;48.532;8.026;2024-02-04T05:09:05;1.02;;;0.90;;
21206;SDS011;10761;48.532;8.026;2024-02-04T05:11:31;2.45;;;1.00;;
21206;SDS011;10761;48.532;8.026;2024-02-04T05:13:56;1.60;;;1.02;;
21206;SDS011;10761;48.532;8.026;2024-02-04T05:16:22;1.05;;;1.00;;
21206;SDS011;10761;48.532;8.026;2024-02-04T05:18:47;5.50;;;1.20;;
21206;SDS011;10761;48.532;8.026;2024-02-04T05:21:13;1.10;;;1.00;;
21206;SDS011;10761;48.532;8.026;2024-02-04T05:23:39;1.15;;;1.05;;
21206;SDS011;10761;48.532;8.026;2024-02-04T05:26:04;1.40;;;1.30;;
21206;SDS011;10761;48.532;8.026;2024-02-04T05:28:30;1.73;;;1.15;;
21206;SDS011;10761;48.532;8.026;2024-02-04T05:30:56;1.77;;;0.90;;
21206;SDS011;10761;48.532;8.026;2024-02-04T05:33:22;1.20;;;1.10;;
21206;SDS011;10761;48.532;8.026;2024-02-04T05:35:48;2.08;;;0.93;;
21206;SDS011;10761;48.532;8.026;2024-02-04T05:38:13;1.42;;;0.93;;
21206;SDS011;10761;48.532;8.026;2024-02-04T05:40:41;1.52;;;1.27;;
21206;SDS011;10761;48.532;8.026;2024-02-04T05:43:06;3.03;;;1.20;;
21206;SDS011;10761;48.532;8.026;2024-02-04T05:45:33;1.52;;;1.42;;
21206;SDS011;10761;48.532;8.026;2024-02-04T05:47:59;1.70;;;1.60;;
21206;SDS011;10761;48.532;8.026;2024-02-04T05:50:25;2.90;;;1.67;;
21206;SDS011;10761;48.532;8.026;2024-02-04T05:52:51;1.80;;;1.70;;
21206;SDS011;10761;48.532;8.026;2024-02-04T05:55:16;1.75;;;1.50;;
21206;SDS011;10761;48.532;8.026;2024-02-04T05:57:42;1.95;;;1.73;;
21206;SDS011;10761;48.532;8.026;2024-02-04T06:00:08;2.00;;;1.70;;
21206;SDS011;10761;48.532;8.026;2024-02-04T06:02:35;1.60;;;1.50;;
21206;SDS011;10761;48.532;8.026;2024-02-04T06:05:01;3.40;;;1.52;;
21206;SDS011;10761;48.532;8.026;2024-02-04T06:07:27;2.10;;;1.65;;
21206;SDS011;10761;48.532;8.026;2024-02-04T06:09:53;1.60;;;1.50;;
21206;SDS011;10761;48.532;8.026;2024-02-04T06:12:21;2.40;;;1.27;;
21206;SDS011;10761;48.532;8.026;2024-02-04T06:14:46;1.85;;;1.67;;
21206;SDS011;10761;48.532;8.026;2024-02-04T06:17:12;1.75;;;1.35;;
21206;SDS011;10761;48.532;8.026;2024-02-04T06:19:38;1.67;;;1.20;;
21206;SDS011;10761;48.532;8.026;2024-02-04T06:22:03;2.25;;;1.48;;
21206;SDS011;10761;48.532;8.026;2024-02-04T06:24:29;1.48;;;1.23;;
21206;SDS011;10761;48.532;8.026;2024-02-04T06:26:55;1.50;;;1.17;;
21206;SDS011;10761;48.532;8.026;2024-02-04T06:29:20;1.52;;;1.42;;
21206;SDS011;10761;48.532;8.026;2024-02-04T06:31:46;1.45;;;1.35;;
21206;SDS011;10761;48.532;8.026;2024-02-04T06:34:12;2.85;;;1.20;;
21206;SDS011;10761;48.532;8.026;2024-02-04T06:36:38;1.80;;;1.40;;
21206;SDS011;10761;48.532;8.026;2024-02-04T06:39:07;1.40;;;1.30;;
21206;SDS011;10761;48.532;8.026;2024-02-04T06:41:33;7.05;;;1.40;;
21206;SDS011;10761;48.532;8.026;2024-02-04T06:43:59;1.77;;;1.40;;
21206;SDS011;10761;48.532;8.026;2024-02-04T06:46:28;2.20;;;1.45;;
21206;SDS011;10761;48.532;8.026;2024-02-04T06:48:54;3.55;;;1.50;;
21206;SDS011;10761;48.532;8.026;2024-02-04T06:51:20;1.30;;;1.10;;
21206;SDS011;10761;48.532;8.026;2024-02-04T06:53:46;1.73;;;1.60;;
21206;SDS011;10761;48.532;8.026;2024-02-04T06:56:12;2.88;;;1.38;;
21206;SDS011;10761;48.532;8.026;2024-02-04T06:58:38;1.50;;;1.40;;
21206;SDS011;10761;48.532;8.026;2024-02-04T07:01:04;1.48;;;1.38;;
21206;SDS011;10761;48.532;8.026;2024-02-04T07:03:29;1.67;;;1.40;;
21206;SDS011;10761;48.532;8.026;2024-02-04T07:05:55;2.47;;;1.60;;
21206;SDS011;10761;48.532;8.026;2024-02-04T07:08:22;2.83;;;1.10;;
21206;SDS011;10761;48.532;8.026;2024-02-04T07:10:48;1.20;;;1.10;;
21206;SDS011;10761;48.532;8.026;2024-02-04T07:13:13;1.42;;;1.20;;
21206;SDS011;10761;48.532;8.026;2024-02-04T07:15:39;1.30;;;1.20;;
21206;SDS011;10761;48.532;8.026;2024-02-04T07:18:05;0.95;;;0.85;;
21206;SDS011;10761;48.532;8.026;2024-02-04T07:20:30;0.70;;;0.70;;
21206;SDS011;10761;48.532;8.026;2024-02-04T07:22:56;1.75;;;0.80;;
21206;SDS011;10761;48.532;8.026;2024-02-04T07:25:22;1.48;;;0.80;;
21206;SDS011;10761;48.532;8.026;2024-02-04T07:27:48;0.90;;;0.80;;
21206;SDS011;10761;48.532;8.026;2024-02-04T07:30:13;1.58;;;1.00;;
21206;SDS011;10761;48.532;8.026;2024-02-04T07:32:39;2.63;;;0.80;;
21206;SDS011;10761;48.532;8.026;2024-02-04T07:35:05;0.80;;;0.80;;
21206;SDS011;10761;48.532;8.026;2024-02-04T07:37:31;0.80;;;0.80;;
21206;SDS011;10761;48.532;8.026;2024-02-04T07:39:57;0.68;;;0.63;;
21206;SDS011;10761;48.532;8.026;2024-02-04T07:42:23;1.85;;;0.80;;
21206;SDS011;10761;48.532;8.026;2024-02-04T07:44:49;0.90;;;0.90;;
21206;SDS011;10761;48.532;8.026;2024-02-04T07:47:14;0.85;;;0.55;;
21206;SDS011;10761;48.532;8.026;2024-02-04T07:49:41;0.70;;;0.70;;
21206;SDS011;10761;48.532;8.026;2024-02-04T07:52:06;1.13;;;0.45;;
21206;SDS011;10761;48.532;8.026;2024-02-04T07:54:32;1.48;;;0.90;;
21206;SDS011;10761;48.532;8.026;2024-02-04T07:56:57;0.98;;;0.90;;
21206;SDS011;10761;48.532;8.026;2024-02-04T07:59:24;1.23;;;0.60;;
21206;SDS011;10761;48.532;8.026;2024-02-04T08:01:50;1.25;;;0.60;;
21206;SDS011;10761;48.532;8.026;2024-02-04T08:04:15;0.85;;;0.20;;
21206;SDS011;10761;48.532;8.026;2024-02-04T08:06:41;0.50;;;0.28;;
21206;SDS011;10761;48.532;8.026;2024-02-04T08:09:06;1.17;;;0.40;;
21206;SDS011;10761;48.532;8.026;2024-02-04T08:11:33;1.40;;;0.38;;
21206;SDS011;10761;48.532;8.026;2024-02-04T08:13:59;0.93;;;0.30;;
21206;SDS011;10761;48.532;8.026;2024-02-04T08:16:25;0.77;;;0.30;;
21206;SDS011;10761;48.532;8.026;2024-02-04T08:18:50;0.75;;;0.47;;
21206;SDS011;10761;48.532;8.026;2024-02-04T08:21:16;0.55;;;0.30;;
21206;SDS011;10761;48.532;8.026;2024-02-04T08:23:42;1.27;;;0.70;;
21206;SDS011;10761;48.532;8.026;2024-02-04T08:26:09;0.50;;;0.43;;
21206;SDS011;10761;48.532;8.026;2024-02-04T08:28:35;1.27;;;1.10;;
21206;SDS011;10761;48.532;8.026;2024-02-04T08:31:01;1.45;;;0.98;;
21206;SDS011;10761;48.532;8.026;2024-02-04T08:33:26;1.90;;;1.40;;
21206;SDS011;10761;48.532;8.026;2024-02-04T08:35:52;3.60;;;2.25;;
21206;SDS011;10761;48.532;8.026;2024-02-04T08:38:17;5.90;;;1.40;;
21206;SDS011;10761;48.532;8.026;2024-02-04T08:40:43;1.05;;;0.80;;
21206;SDS011;10761;48.532;8.026;2024-02-04T08:43:09;1.33;;;0.80;;
21206;SDS011;10761;48.532;8.026;2024-02-04T08:45:34;0.60;;;0.60;;
21206;SDS011;10761;48.532;8.026;2024-02-04T08:48:00;0.77;;;0.70;;
21206;SDS011;10761;48.532;8.026;2024-02-04T08:50:25;0.82;;;0.80;;
21206;SDS011;10761;48.532;8.026;2024-02-04T08:52:51;0.63;;;0.60;;
21206;SDS011;10761;48.532;8.026;2024-02-04T08:55:17;3.05;;;0.70;;
21206;SDS011;10761;48.532;8.026;2024-02-04T08:57:42;1.48;;;0.40;;
21206;SDS011;10761;48.532;8.026;2024-02-04T09:00:08;0.95;;;0.40;;
21206;SDS011;10761;48.532;8.026;2024-02-04T09:02:36;1.30;;;0.60;;
21206;SDS011;10761;48.532;8.026;2024-02-04T09:05:03;1.55;;;0.60;;
21206;SDS011;10761;48.532;8.026;2024-02-04T09:07:29;0.45;;;0.28;;
21206;SDS011;10761;48.532;8.026;2024-02-04T09:09:56;0.30;;;0.30;;
21206;SDS011;10761;48.532;8.026;2024-02-04T09:12:22;0.68;;;0.50;;
21206;SDS011;10761;48.532;8.026;2024-02-04T09:14:47;1.45;;;0.70;;
21206;SDS011;10761;48.532;8.026;2024-02-04T09:17:13;0.50;;;0.30;;
21206;SDS011;10761;48.532;8.026;2024-02-04T09:19:39;0.30;;;0.30;;
21206;SDS011;10761;48.532;8.026;2024-02-04T09:22:04;0.50;;;0.30;;
21206;SDS011;10761;48.532;8.026;2024-02-04T09:24:30;1.80;;;0.52;;
21206;SDS011;10761;48.532;8.026;2024-02-04T09:26:56;1.67;;;0.30;;
21206;SDS011;10761;48.532;8.026;2024-02-04T09:29:21;0.30;;;0.22;;
21206;SDS011;10761;48.532;8.026;2024-02-04T09:31:47;0.30;;;0.20;;
21206;SDS011;10761;48.532;8.026;2024-02-04T09:34:14;0.40;;;0.30;;
21206;SDS011;10761;48.532;8.026;2024-02-04T09:36:40;0.60;;;0.35;;
21206;SDS011;10761;48.532;8.026;2024-02-04T09:39:06;0.25;;;0.20;;
21206;SDS011;10761;48.532;8.026;2024-02-04T09:41:31;0.95;;;0.30;;
21206;SDS011;10761;48.532;8.026;2024-02-04T09:43:57;3.22;;;0.30;;
21206;SDS011;10761;48.532;8.026;2024-02-04T09:46:24;0.75;;;0.70;;
21206;SDS011;10761;48.532;8.026;2024-02-04T09:48:50;0.47;;;0.40;;
21206;SDS011;10761;48.532;8.026;2024-02-04T09:51:18;0.68;;;0.30;;
21206;SDS011;10761;48.532;8.026;2024-02-04T09:53:44;0.55;;;0.30;;
21206;SDS011;10761;48.532;8.026;2024-02-04T09:56:10;0.73;;;0.38;;
21206;SDS011;10761;48.532;8.026;2024-02-04T09:58:37;0.30;;;0.25;;
21206;SDS011;10761;48.532;8.026;2024-02-04T10:01:06;0.68;;;0.40;;
21206;SDS011;10761;48.532;8.026;2024-02-04T10:03:35;0.90;;;0.20;;
21206;SDS011;10761;48.532;8.026;2024-02-04T10:06:00;0.28;;;0.28;;
21206;SDS011;10761;48.532;8.026;2024-02-04T10:08:26;2.30;;;0.63;;
21206;SDS011;10761;48.532;8.026;2024-02-04T10:10:52;2.22;;;0.50;;
21206;SDS011;10761;48.532;8.026;2024-02-04T10:13:19;0.55;;;0.55;;
21206;SDS011;10761;48.532;8.026;2024-02-04T10:15:46;0.45;;;0.32;;
21206;SDS011;10761;48.532;8.026;2024-02-04T10:18:13;0.50;;;0.50;;
21206;SDS011;10761;48.532;8.026;2024-02-04T10:20:38;1.10;;;0.50;;
21206;SDS011;10761;48.532;8.026;2024-02-04T10:23:04;0.50;;;0.40;;
21206;SDS011;10761;48.532;8.026;2024-02-04T10:25:29;1.08;;;0.40;;
21206;SDS011;10761;48.532;8.026;2024-02-04T10:27:55;0.63;;;0.40;;
21206;SDS011;10761;48.532;8.026;2024-02-04T10:30:22;0.50;;;0.50;;
21206;SDS011;10761;48.532;8.026;2024-02-04T10:32:52;0.80;;;0.50;;
21206;SDS011;10761;48.532;8.026;2024-02-04T10:35:21;0.45;;;0.45;;
21206;SDS011;10761;48.532;8.026;2024-02-04T10:37:50;0.40;;;0.40;;
21206;SDS011;10761;48.532;8.026;2024-02-04T10:40:16;0.63;;;0.50;;
21206;SDS011;10761;48.532;8.026;2024-02-04T10:42:43;0.80;;;0.40;;
21206;SDS011;10761;48.532;8.026;2024-02-04T10:45:09;0.63;;;0.47;;
21206;SDS011;10761;48.532;8.026;2024-02-04T10:47:39;0.57;;;0.50;;
21206;SDS011;10761;48.532;8.026;2024-02-04T10:50:05;0.40;;;0.40;;
21206;SDS011;10761;48.532;8.026;2024-02-04T10:52:35;0.52;;;0.45;;
21206;SDS011;10761;48.532;8.026;2024-02-04T10:55:04;1.00;;;0.60;;
21206;SDS011;10761;48.532;8.026;2024-02-04T10:57:32;0.73;;;0.65;;
21206;SDS011;10761;48.532;8.026;2024-02-04T10:59:58;1.65;;;0.50;;
21206;SDS011;10761;48.532;8.026;2024-02-04T11:02:25;2.80;;;0.60;;
21206;SDS011;10761;48.532;8.026;2024-02-04T11:04:52;0.55;;;0.47;;
21206;SDS011;10761;48.532;8.026;2024-02-04T11:07:19;2.25;;;0.50;;
21206;SDS011;10761;48.532;8.026;2024-02-04T11:09:46;1.33;;;0.60;;
21206;SDS011;10761;48.532;8.026;2024-02-04T11:12:14;0.82;;;0.60;;
21206;SDS011;10761;48.532;8.026;2024-02-04T11:14:42;1.48;;;1.02;;
21206;SDS011;10761;48.532;8.026;2024-02-04T11:19:51;0.50;;;0.50;;
21206;SDS011;10761;48.532;8.026;2024-02-04T11:22:54;1.20;;;0.60;;
21206;SDS011;10761;48.532;8.026;2024-02-04T11:28:08;0.70;;;0.38;;
21206;SDS011;10761;48.532;8.026;2024-02-04T11:30:36;0.93;;;0.60;;
21206;SDS011;10761;48.532;8.026;2024-02-04T11:33:05;0.50;;;0.50;;
21206;SDS011;10761;48.532;8.026;2024-02-04T11:35:34;2.67;;;0.50;;
21206;SDS011;10761;48.532;8.026;2024-02-04T11:38:02;2.25;;;0.55;;
21206;SDS011;10761;48.532;8.026;2024-02-04T11:40:33;0.77;;;0.35;;
21206;SDS011;10761;48.532;8.026;2024-02-04T11:43:04;2.20;;;0.40;;
21206;SDS011;10761;48.532;8.026;2024-02-04T11:45:41;0.40;;;0.40;;
21206;SDS011;10761;48.532;8.026;2024-02-04T11:48:09;1.08;;;0.55;;
21206;SDS011;10761;48.532;8.026;2024-02-04T11:50:35;0.82;;;0.50;;
21206;SDS011;10761;48.532;8.026;2024-02-04T11:53:04;0.47;;;0.47;;
21206;SDS011;10761;48.532;8.026;2024-02-04T11:55:30;0.77;;;0.50;;
21206;SDS011;10761;48.532;8.026;2024-02-04T11:57:56;0.38;;;0.32;;
21206;SDS011;10761;48.532;8.026;2024-02-04T12:00:22;1.92;;;0.30;;
21206;SDS011;10761;48.532;8.026;2024-02-04T12:02:59;0.43;;;0.40;;
21206;SDS011;10761;48.532;8.026;2024-02-04T12:05:26;0.95;;;0.30;;
21206;SDS011;10761;48.532;8.026;2024-02-04T12:07:52;2.92;;;0.40;;
21206;SDS011;10761;48.532;8.026;2024-02-04T12:10:18;0.55;;;0.50;;
21206;SDS011;10761;48.532;8.026;2024-02-04T12:12:45;0.95;;;0.50;;
21206;SDS011;10761;48.532;8.026;2024-02-04T12:15:11;0.40;;;0.40;;
21206;SDS011;10761;48.532;8.026;2024-02-04T12:17:37;1.17;;;0.50;;
21206;SDS011;10761;48.532;8.026;2024-02-04T12:20:03;0.52;;;0.30;;
21206;SDS011;10761;48.532;8.026;2024-02-04T12:22:30;0.60;;;0.60;;
21206;SDS011;10761;48.532;8.026;2024-02-04T12:24:57;0.30;;;0.30;;
21206;SDS011;10761;48.532;8.026;2024-02-04T12:27:23;0.50;;;0.50;;
21206;SDS011;10761;48.532;8.026;2024-02-04T12:29:52;0.77;;;0.55;;
21206;SDS011;10761;48.532;8.026;2024-02-04T12:32:18;0.98;;;0.68;;
21206;SDS011;10761;48.532;8.026;2024-02-04T12:34:48;0.52;;;0.50;;
21206;SDS011;10761;48.532;8.026;2024-02-04T12:37:13;0.60;;;0.60;;
21206;SDS011;10761;48.532;8.026;2024-02-04T12:39:39;0.95;;;0.60;;
21206;SDS011;10761;48.532;8.026;2024-02-04T12:42:05;1.77;;;0.68;;
21206;SDS011;10761;48.532;8.026;2024-02-04T12:44:31;0.73;;;0.70;;
21206;SDS011;10761;48.532;8.026;2024-02-04T12:46:57;0.68;;;0.60;;
21206;SDS011;10761;48.532;8.026;2024-02-04T12:49:22;0.82;;;0.50;;
21206;SDS011;10761;48.532;8.026;2024-02-04T12:51:48;0.60;;;0.60;;
21206;SDS011;10761;48.532;8.026;2024-02-04T12:54:14;0.75;;;0.70;;
21206;SDS011;10761;48.532;8.026;2024-02-04T12:56:43;0.57;;;0.57;;
21206;SDS011;10761;48.532;8.026;2024-02-04T13:01:58;0.70;;;0.70;;
21206;SDS011;10761;48.532;8.026;2024-02-04T13:04:25;1.05;;;0.90;;
21206;SDS011;10761;48.532;8.026;2024-02-04T13:06:51;0.68;;;0.68;;
21206;SDS011;10761;48.532;8.026;2024-02-04T13:09:17;0.90;;;0.90;;
21206;SDS011;10761;48.532;8.026;2024-02-04T13:11:44;1.40;;;0.75;;
21206;SDS011;10761;48.532;8.026;2024-02-04T13:14:10;1.40;;;0.50;;
21206;SDS011;10761;48.532;8.026;2024-02-04T13:16:36;1.13;;;0.63;;
21206;SDS011;10761;48.532;8.026;2024-02-04T13:19:02;0.50;;;0.50;;
21206;SDS011;10761;48.532;8.026;2024-02-04T13:21:29;0.50;;;0.50;;
21206;SDS011;10761;48.532;8.026;2024-02-04T13:23:55;1.05;;;0.70;;
21206;SDS011;10761;48.532;8.026;2024-02-04T13:26:21;0.55;;;0.52;;
21206;SDS011;10761;48.532;8.026;2024-02-04T13:28:46;0.70;;;0.70;;
21206;SDS011;10761;48.532;8.026;2024-02-04T13:31:12;0.70;;;0.70;;
21206;SDS011;10761;48.532;8.026;2024-02-04T13:33:38;1.05;;;0.60;;
21206;SDS011;10761;48.532;8.026;2024-02-04T13:36:05;1.40;;;0.77;;
21206;SDS011;10761;48.532;8.026;2024-02-04T13:38:34;0.70;;;0.60;;
21206;SDS011;10761;48.532;8.026;2024-02-04T13:41:00;0.70;;;0.60;;
21206;SDS011;10761;48.532;8.026;2024-02-04T13:43:27;0.60;;;0.60;;
21206;SDS011;10761;48.532;8.026;2024-02-04T13:45:52;0.55;;;0.55;;
21206;SDS011;10761;48.532;8.026;2024-02-04T13:48:18;0.70;;;0.70;;
21206;SDS011;10761;48.532;8.026;2024-02-04T13:50:46;0.57;;;0.52;;
21206;SDS011;10761;48.532;8.026;2024-02-04T13:53:12;0.60;;;0.50;;
21206;SDS011;10761;48.532;8.026;2024-02-04T13:55:38;2.08;;;0.65;;
21206;SDS011;10761;48.532;8.026;2024-02-04T13:58:04;1.27;;;0.60;;
21206;SDS011;10761;48.532;8.026;2024-02-04T14:00:29;1.23;;;0.60;;
21206;SDS011;10761;48.532;8.026;2024-02-04T14:02:55;2.05;;;1.00;;
21206;SDS011;10761;48.532;8.026;2024-02-04T14:05:21;0.70;;;0.70;;
21206;SDS011;10761;48.532;8.026;2024-02-04T14:07:46;0.88;;;0.80;;
21206;SDS011;10761;48.532;8.026;2024-02-04T14:10:12;2.15;;;0.80;;
21206;SDS011;10761;48.532;8.026;2024-02-04T14:12:39;0.70;;;0.70;;
21206;SDS011;10761;48.532;8.026;2024-02-04T14:15:09;0.70;;;0.70;;
21206;SDS011;10761;48.532;8.026;2024-02-04T14:17:34;0.73;;;0.70;;
21206;SDS011;10761;48.532;8.026;2024-02-04T14:20:00;1.30;;;0.70;;
21206;SDS011;10761;48.532;8.026;2024-02-04T14:22:26;0.70;;;0.70;;
21206;SDS011;10761;48.532;8.026;2024-02-04T14:24:52;0.90;;;0.90;;
21206;SDS011;10761;48.532;8.026;2024-02-04T14:27:18;1.50;;;1.00;;
21206;SDS011;10761;48.532;8.026;2024-02-04T14:29:44;0.85;;;0.85;;
21206;SDS011;10761;48.532;8.026;2024-02-04T14:32:09;1.05;;;0.75;;
21206;SDS011;10761;48.532;8.026;2024-02-04T14:34:35;1.00;;;0.90;;
21206;SDS011;10761;48.532;8.026;2024-02-04T14:37:01;0.63;;;0.63;;
21206;SDS011;10761;48.532;8.026;2024-02-04T14:39:26;0.70;;;0.70;;
21206;SDS011;10761;48.532;8.026;2024-02-04T14:41:52;0.63;;;0.63;;
21206;SDS011;10761;48.532;8.026;2024-02-04T14:44:19;1.30;;;1.00;;
21206;SDS011;10761;48.532;8.026;2024-02-04T14:46:45;1.08;;;0.95;;
21206;SDS011;10761;48.532;8.026;2024-02-04T14:49:11;1.50;;;1.02;;
21206;SDS011;10761;48.532;8.026;2024-02-04T14:51:39;1.67;;;1.33;;
21206;SDS011;10761;48.532;8.026;2024-02-04T14:54:05;1.75;;;1.05;;
21206;SDS011;10761;48.532;8.026;2024-02-04T14:56:37;1.27;;;0.70;;